Time;durP1;ratioP1;P1;durP2;ratioP2;P2;SDS_P1;SDS_P2;PMS_P1;PMS_P2;Temp;Humidity;BMP_temperature;BMP_pressure;BME280_temperature;BME280_humidity;BME280_pressure;Samples;Min_cycle;Max_cycle;Signal;HPM_P1;HPM_P2
2022/03/13 00:00:34;;;;;;;0.20;0.20;;;;;;;10.94;100.00;98488.56;7398231;19;20021;-58
2022/03/13 00:03:05;;;;;;;3.50;0.77;;;;;;;10.90;100.00;98488.84;7397291;19;20018;-59
2022/03/13 00:05:33;;;;;;;3.10;1.58;;;;;;;10.92;100.00;98491.09;7398743;19;20014;-59
2022/03/13 00:07:58;;;;;;;0.25;0.25;;;;;;;10.88;100.00;98485.81;7397445;19;20018;-58
2022/03/13 00:10:27;;;;;;;1.45;0.57;;;;;;;10.88;100.00;98487.81;7398159;19;20078;-58
2022/03/13 00:12:54;;;;;;;3.10;0.50;;;;;;;10.86;100.00;98488.34;7397985;19;20019;-58
2022/03/13 00:15:35;;;;;;;0.30;0.30;;;;;;;10.85;100.00;98486.06;7393159;19;20034;-58
2022/03/13 00:18:02;;;;;;;0.68;0.63;;;;;;;10.86;100.00;98477.19;7396534;19;20014;-58
2022/03/13 00:20:30;;;;;;;0.60;0.60;;;;;;;10.89;100.00;98478.22;7399074;19;20022;-58
2022/03/13 00:22:57;;;;;;;1.33;0.43;;;;;;;10.87;100.00;98473.13;7397130;19;20352;-58
2022/03/13 00:25:23;;;;;;;2.40;0.50;;;;;;;10.87;100.00;98483.53;7396580;19;20022;-58
2022/03/13 00:27:49;;;;;;;0.50;0.43;;;;;;;10.91;100.00;98484.03;7398150;19;20011;-59
2022/03/13 00:30:17;;;;;;;0.30;0.30;;;;;;;10.90;100.00;98482.50;7394673;19;20014;-59
2022/03/13 00:32:43;;;;;;;0.20;0.10;;;;;;;10.94;100.00;98469.06;7392289;19;20336;-59
2022/03/13 00:35:11;;;;;;;0.73;0.35;;;;;;;10.91;100.00;98465.28;7396881;19;20011;-60
2022/03/13 00:37:37;;;;;;;0.20;0.20;;;;;;;10.91;100.00;98461.75;7396798;19;20014;-59
2022/03/13 00:40:04;;;;;;;0.70;0.38;;;;;;;10.93;100.00;98459.97;7397233;19;20017;-59
2022/03/13 00:42:29;;;;;;;1.95;0.35;;;;;;;10.94;100.00;98461.47;7396072;19;20034;-59
2022/03/13 00:44:55;;;;;;;2.22;0.93;;;;;;;10.92;100.00;98468.81;7395645;19;20011;-58
2022/03/13 00:47:21;;;;;;;6.22;0.50;;;;;;;10.94;100.00;98471.84;7395816;19;20011;-59
2022/03/13 00:49:48;;;;;;;0.10;0.10;;;;;;;10.92;100.00;98463.25;7395973;19;20010;-59
2022/03/13 00:52:14;;;;;;;0.68;0.68;;;;;;;10.93;100.00;98448.81;7393604;19;20078;-59
2022/03/13 00:54:40;;;;;;;0.60;0.60;;;;;;;10.93;100.00;98453.63;7394680;19;20035;-58
2022/03/13 00:57:06;;;;;;;1.13;0.50;;;;;;;10.94;100.00;98455.91;7395296;19;20014;-51
2022/03/13 00:59:31;;;;;;;0.15;0.15;;;;;;;10.92;100.00;98461.22;7395363;19;20018;-51
2022/03/13 01:01:58;;;;;;;2.25;0.35;;;;;;;10.87;100.00;98450.84;7400872;19;20051;-51
2022/03/13 01:04:23;;;;;;;0.65;0.32;;;;;;;10.88;100.00;98451.63;7395491;19;20011;-51
2022/03/13 01:06:49;;;;;;;0.17;0.17;;;;;;;10.88;100.00;98465.53;7397021;19;20019;-51
2022/03/13 01:09:15;;;;;;;1.70;0.45;;;;;;;10.94;100.00;98460.72;7395515;19;20018;-51
2022/03/13 01:11:40;;;;;;;1.05;0.40;;;;;;;10.94;100.00;98446.78;7398740;19;20019;-51
2022/03/13 01:14:07;;;;;;;0.38;0.30;;;;;;;10.92;100.00;98452.88;7393409;19;20018;-51
2022/03/13 01:16:39;;;;;;;0.30;0.30;;;;;;;10.88;100.00;98448.84;7394810;19;20015;-51
2022/03/13 01:19:06;;;;;;;3.00;0.63;;;;;;;10.89;100.00;98437.19;7398721;19;20015;-52
2022/03/13 01:21:34;;;;;;;0.13;0.13;;;;;;;10.90;100.00;98457.44;7397395;19;20021;-51
2022/03/13 01:23:59;;;;;;;0.52;0.13;;;;;;;10.91;100.00;98442.25;7394511;19;20018;-52
2022/03/13 01:26:25;;;;;;;1.50;0.55;;;;;;;10.92;100.00;98452.09;7396246;19;20038;-51
2022/03/13 01:28:58;;;;;;;0.40;0.40;;;;;;;10.89;100.00;98436.44;7393936;19;20023;-51
2022/03/13 01:31:32;;;;;;;2.75;0.20;;;;;;;10.93;100.00;98434.13;7397680;19;20038;-51
2022/03/13 01:33:58;;;;;;;0.20;0.10;;;;;;;10.90;100.00;98437.94;7391101;19;20035;-51
2022/03/13 01:36:24;;;;;;;0.10;0.10;;;;;;;10.94;100.00;98438.44;7393448;19;20026;-51
2022/03/13 01:38:55;;;;;;;0.63;0.57;;;;;;;10.87;100.00;98438.97;7395315;19;20014;-49
2022/03/13 01:41:21;;;;;;;;;;;;;;;10.82;100.00;98431.38;7399136;19;20014;-51
2022/03/13 01:43:48;;;;;;;3.85;1.85;;;;;;;10.73;100.00;98437.25;7392525;19;20249;-51
2022/03/13 01:46:13;;;;;;;5.95;0.55;;;;;;;10.59;100.00;98442.59;7391402;19;20019;-51
2022/03/13 01:48:52;;;;;;;0.10;0.10;;;;;;;10.56;100.00;98431.72;7394144;19;20046;-52
2022/03/13 01:51:18;;;;;;;1.45;0.50;;;;;;;10.54;100.00;98429.47;7397823;19;20021;-52
2022/03/13 01:53:44;;;;;;;1.45;0.45;;;;;;;10.47;100.00;98424.41;7393453;19;20018;-52
2022/03/13 01:56:10;;;;;;;1.10;0.80;;;;;;;10.36;100.00;98407.72;7391847;19;20463;-52
2022/03/13 01:58:36;;;;;;;1.75;0.43;;;;;;;10.32;100.00;98418.38;7394562;19;20074;-52
2022/03/13 02:01:02;;;;;;;0.75;0.75;;;;;;;10.28;100.00;98423.44;7397433;19;20040;-52
2022/03/13 02:03:28;;;;;;;1.40;1.27;;;;;;;10.28;100.00;98412.31;7393179;19;20011;-52
2022/03/13 02:05:54;;;;;;;0.65;0.65;;;;;;;10.21;100.00;98440.63;7395354;19;20023;-52
2022/03/13 02:08:22;;;;;;;0.80;0.80;;;;;;;10.20;100.00;98427.25;7393516;19;20036;-52
2022/03/13 02:10:48;;;;;;;0.65;0.65;;;;;;;10.17;100.00;98445.69;7394930;19;20015;-52
2022/03/13 02:13:18;;;;;;;0.80;0.52;;;;;;;10.20;100.00;98435.59;7392933;19;20018;-52
2022/03/13 02:15:45;;;;;;;1.80;0.70;;;;;;;10.15;100.00;98428.75;7391031;19;20018;-53
2022/03/13 02:18:11;;;;;;;2.75;0.50;;;;;;;10.15;100.00;98412.06;7394961;19;20014;-52
2022/03/13 02:20:54;;;;;;;1.85;0.60;;;;;;;10.09;100.00;98416.84;7395001;19;20019;-52
2022/03/13 02:23:26;;;;;;;0.50;0.47;;;;;;;9.97;100.00;98409.78;7392880;19;20403;-52
2022/03/13 02:26:01;;;;;;;1.45;0.20;;;;;;;9.95;100.00;98401.19;7391968;19;20015;-52
2022/03/13 02:28:32;;;;;;;0.15;0.15;;;;;;;9.90;100.00;98408.25;7392298;19;20369;-52
2022/03/13 02:31:00;;;;;;;0.20;0.20;;;;;;;9.81;100.00;98404.97;7394994;19;20519;-52
2022/03/13 02:33:25;;;;;;;0.80;0.45;;;;;;;9.82;100.00;98398.91;7391695;19;20487;-52
2022/03/13 02:36:00;;;;;;;0.65;0.43;;;;;;;9.90;100.00;98399.16;7390956;19;20086;-52
2022/03/13 02:38:29;;;;;;;0.20;0.20;;;;;;;9.86;100.00;98404.22;7393592;19;20035;-52
2022/03/13 02:40:55;;;;;;;0.25;0.25;;;;;;;9.92;100.00;98385.50;7394172;19;20044;-52
2022/03/13 02:43:21;;;;;;;5.68;0.43;;;;;;;9.97;100.00;98386.75;7393205;19;20010;-52
2022/03/13 02:45:47;;;;;;;0.52;0.52;;;;;;;9.99;100.00;98385.00;7392284;19;20019;-52
2022/03/13 02:48:14;;;;;;;1.30;0.65;;;;;;;9.99;100.00;98376.66;7392813;19;20035;-52
2022/03/13 02:50:40;;;;;;;2.85;0.65;;;;;;;9.99;100.00;98373.88;7394459;19;20359;-52
2022/03/13 02:53:07;;;;;;;1.27;0.47;;;;;;;10.02;100.00;98375.66;7394010;19;20023;-52
2022/03/13 02:55:33;;;;;;;1.05;0.55;;;;;;;10.07;100.00;98379.69;7392401;19;20006;-52
2022/03/13 02:57:59;;;;;;;3.40;0.70;;;;;;;10.08;100.00;98376.38;7391160;19;20336;-53
2022/03/13 03:01:00;;;;;;;0.50;0.30;;;;;;;10.09;100.00;98379.94;7394026;19;20034;-52
2022/03/13 03:03:26;;;;;;;3.03;1.67;;;;;;;10.03;100.00;98368.06;7389946;19;20550;-52
2022/03/13 03:05:53;;;;;;;0.88;0.88;;;;;;;10.08;100.00;98365.25;7392543;19;20354;-53
2022/03/13 03:08:19;;;;;;;4.45;1.08;;;;;;;10.16;100.00;98366.28;7392908;19;20074;-52
2022/03/13 03:10:45;;;;;;;1.85;0.52;;;;;;;10.18;100.00;98360.97;7393953;19;20735;-53
2022/03/13 03:13:13;;;;;;;1.27;0.90;;;;;;;10.16;100.00;98357.94;7392566;19;20518;-53
2022/03/13 03:15:39;;;;;;;0.95;0.30;;;;;;;10.21;100.00;98351.63;7390078;19;20011;-53
2022/03/13 03:18:07;;;;;;;2.35;0.93;;;;;;;10.23;100.00;98353.88;7392345;19;20038;-53
2022/03/13 03:20:34;;;;;;;0.98;0.52;;;;;;;10.24;100.00;98350.59;7394709;19;20070;-53
2022/03/13 03:23:00;;;;;;;1.75;1.27;;;;;;;10.22;100.00;98353.13;7392224;19;20019;-53
2022/03/13 03:25:27;;;;;;;2.53;0.73;;;;;;;10.24;100.00;98345.03;7392175;19;20015;-53
2022/03/13 03:27:55;;;;;;;0.63;0.63;;;;;;;10.25;100.00;98354.88;7393479;19;20030;-53
2022/03/13 03:30:22;;;;;;;1.23;0.80;;;;;;;10.18;100.00;98347.06;7393275;19;20487;-53
2022/03/13 03:32:48;;;;;;;0.73;0.65;;;;;;;10.21;100.00;98334.91;7392134;19;20396;-53
2022/03/13 03:35:16;;;;;;;1.67;0.60;;;;;;;10.19;100.00;98336.69;7390315;19;20011;-53
2022/03/13 03:37:43;;;;;;;2.45;1.17;;;;;;;10.14;100.00;98329.88;7389714;19;20082;-53
2022/03/13 03:40:10;;;;;;;2.25;0.85;;;;;;;10.21;100.00;98334.91;7392091;19;20513;-53
2022/03/13 03:42:36;;;;;;;0.55;0.55;;;;;;;10.25;100.00;98329.09;7392603;19;20017;-53
2022/03/13 03:45:03;;;;;;;5.25;1.23;;;;;;;10.23;100.00;98337.94;7393044;19;20007;-53
2022/03/13 03:47:28;;;;;;;1.27;0.85;;;;;;;10.23;100.00;98337.94;7390842;19;20463;-53
2022/03/13 03:49:54;;;;;;;2.42;1.15;;;;;;;10.23;100.00;98342.75;7394911;19;20038;-53
2022/03/13 03:52:19;;;;;;;4.55;1.48;;;;;;;10.24;100.00;98336.69;7390668;19;20027;-53
2022/03/13 03:54:45;;;;;;;0.90;0.45;;;;;;;10.25;100.00;98334.66;7388800;19;20349;-53
2022/03/13 03:57:10;;;;;;;4.57;2.03;;;;;;;10.30;100.00;98348.56;7396816;19;20666;-53
2022/03/13 03:59:36;;;;;;;4.43;1.17;;;;;;;10.28;100.00;98337.19;7399620;19;20037;-53
2022/03/13 04:02:02;;;;;;;3.70;0.88;;;;;;;10.25;100.00;98324.28;7403410;19;20014;-53
2022/03/13 04:04:28;;;;;;;1.20;0.63;;;;;;;10.21;100.00;98328.59;7399683;19;20056;-53
2022/03/13 04:06:54;;;;;;;0.93;0.93;;;;;;;10.21;100.00;98329.34;7398993;19;20463;-53
2022/03/13 04:09:19;;;;;;;1.73;0.88;;;;;;;10.18;100.00;98310.88;7398340;19;20018;-53
2022/03/13 04:11:47;;;;;;;2.22;0.98;;;;;;;10.17;100.00;98323.31;7402821;19;20036;-53
2022/03/13 04:14:14;;;;;;;0.28;0.25;;;;;;;10.16;100.00;98319.00;7397015;19;20081;-52
2022/03/13 04:16:43;;;;;;;0.60;0.60;;;;;;;10.22;100.00;98314.16;7395671;19;20031;-52
2022/03/13 04:19:09;;;;;;;2.40;0.77;;;;;;;10.23;100.00;98312.16;7401565;19;20010;-52
2022/03/13 04:21:39;;;;;;;0.70;0.70;;;;;;;10.19;100.00;98331.91;7402399;19;20018;-52
2022/03/13 04:24:07;;;;;;;0.35;0.35;;;;;;;10.23;100.00;98317.72;7397589;19;20019;-52
2022/03/13 04:26:32;;;;;;;1.90;0.65;;;;;;;10.20;100.00;98321.53;7398565;19;20013;-52
2022/03/13 04:28:58;;;;;;;0.82;0.82;;;;;;;10.19;100.00;98317.22;7399879;19;20019;-52
2022/03/13 04:31:24;;;;;;;1.10;0.70;;;;;;;10.18;100.00;98318.50;7401033;19;20014;-52
2022/03/13 04:33:52;;;;;;;3.92;0.93;;;;;;;10.18;100.00;98322.03;7397272;19;20011;-52
2022/03/13 04:36:21;;;;;;;2.08;1.02;;;;;;;10.18;100.00;98319.25;7396625;19;20022;-52
2022/03/13 04:38:47;;;;;;;0.77;0.77;;;;;;;10.21;100.00;98315.44;7397573;19;20014;-52
2022/03/13 04:41:12;;;;;;;0.30;0.20;;;;;;;10.20;100.00;98313.19;7398515;19;20031;-51
2022/03/13 04:43:38;;;;;;;0.50;0.40;;;;;;;10.22;100.00;98314.16;7398467;19;20022;-52
2022/03/13 04:46:05;;;;;;;1.42;0.82;;;;;;;10.21;100.00;98312.66;7397642;19;20007;-51
2022/03/13 04:48:32;;;;;;;0.80;0.80;;;;;;;10.21;100.00;98309.88;7397686;19;20043;-50
2022/03/13 04:50:59;;;;;;;0.68;0.68;;;;;;;10.22;100.00;98296.75;7400067;19;20018;-49
2022/03/13 04:53:24;;;;;;;1.10;0.90;;;;;;;10.21;100.00;98307.09;7393608;19;20010;-51
2022/03/13 04:55:50;;;;;;;2.55;0.90;;;;;;;10.26;100.00;98298.00;7395130;19;20017;-52
2022/03/13 04:58:18;;;;;;;8.35;1.30;;;;;;;10.31;100.00;98299.25;7397623;19;20407;-52
2022/03/13 05:00:47;;;;;;;0.68;0.68;;;;;;;10.31;100.00;98305.53;7399653;19;20032;-52
2022/03/13 05:03:14;;;;;;;2.63;0.47;;;;;;;10.30;100.00;98297.72;7397039;19;20359;-52
2022/03/13 05:05:40;;;;;;;0.70;0.70;;;;;;;10.28;100.00;98294.69;7396535;19;20465;-52
2022/03/13 05:08:11;;;;;;;3.65;1.13;;;;;;;10.26;100.00;98302.78;7391591;19;20014;-52
2022/03/13 05:10:36;;;;;;;0.93;0.77;;;;;;;10.20;100.00;98300.00;7396086;19;20033;-52
2022/03/13 05:13:07;;;;;;;1.42;0.88;;;;;;;10.22;100.00;98299.53;7396778;19;20467;-52
2022/03/13 05:15:33;;;;;;;1.55;0.88;;;;;;;10.23;100.00;98296.22;7395530;19;20034;-52
2022/03/13 05:18:00;;;;;;;0.52;0.52;;;;;;;10.17;100.00;98301.03;7397442;19;20019;-52
2022/03/13 05:20:26;;;;;;;1.13;0.82;;;;;;;10.22;100.00;98297.47;7397783;19;20033;-53
2022/03/13 05:22:52;;;;;;;0.82;0.30;;;;;;;10.22;100.00;98297.47;7396476;19;20014;-53
2022/03/13 05:25:17;;;;;;;2.17;0.65;;;;;;;10.23;100.00;98296.22;7396538;19;20015;-53
2022/03/13 05:27:43;;;;;;;0.85;0.80;;;;;;;10.21;100.00;98300.78;7396083;19;20021;-55
2022/03/13 05:30:10;;;;;;;2.85;0.52;;;;;;;10.16;100.00;98305.09;7398034;19;20003;-55
2022/03/13 05:32:36;;;;;;;2.38;0.80;;;;;;;10.13;100.00;98302.56;7393761;19;20046;-55
2022/03/13 05:35:02;;;;;;;1.00;0.65;;;;;;;10.07;100.00;98313.66;7394436;19;20360;-55
2022/03/13 05:37:28;;;;;;;0.60;0.60;;;;;;;10.05;100.00;98307.84;7395480;19;20038;-55
2022/03/13 05:39:54;;;;;;;2.78;0.77;;;;;;;10.08;100.00;98303.31;7394845;19;20078;-55
2022/03/13 05:42:23;;;;;;;1.08;1.00;;;;;;;9.97;100.00;98300.56;7395844;19;20355;-55
2022/03/13 05:44:49;;;;;;;0.30;0.30;;;;;;;10.01;100.00;98301.03;7398198;19;20015;-55
2022/03/13 05:47:15;;;;;;;1.27;0.93;;;;;;;10.04;100.00;98286.91;7395598;19;20030;-55
2022/03/13 05:49:40;;;;;;;0.88;0.73;;;;;;;10.09;100.00;98297.22;7393703;19;20038;-55
2022/03/13 05:52:07;;;;;;;0.77;0.77;;;;;;;10.08;100.00;98298.50;7399817;19;20022;-55
2022/03/13 05:54:33;;;;;;;1.05;0.80;;;;;;;10.08;100.00;98298.50;7394365;19;20006;-54
2022/03/13 05:57:03;;;;;;;2.85;1.48;;;;;;;10.08;100.00;98292.94;7394948;19;20007;-54
2022/03/13 05:59:29;;;;;;;1.10;0.47;;;;;;;10.08;100.00;98292.94;7395648;19;20021;-54
2022/03/13 06:01:54;;;;;;;2.38;1.13;;;;;;;10.13;100.00;98299.78;7397701;19;20030;-54
2022/03/13 06:04:23;;;;;;;0.60;0.60;;;;;;;10.15;100.00;98306.38;7395807;19;20014;-55
2022/03/13 06:06:48;;;;;;;4.57;1.00;;;;;;;10.22;100.00;98303.03;7391600;19;20015;-55
2022/03/13 06:09:14;;;;;;;0.98;0.38;;;;;;;10.22;100.00;98305.81;7395412;19;20030;-55
2022/03/13 06:11:40;;;;;;;0.22;0.22;;;;;;;10.22;100.00;98319.72;7397791;19;20391;-54
2022/03/13 06:14:05;;;;;;;1.90;0.70;;;;;;;10.27;100.00;98316.19;7394101;19;20352;-55
2022/03/13 06:16:31;;;;;;;0.30;0.30;;;;;;;10.25;100.00;98335.41;7394424;19;20018;-55
2022/03/13 06:18:56;;;;;;;2.00;0.68;;;;;;;10.29;100.00;98319.22;7396882;19;20357;-55
2022/03/13 06:21:22;;;;;;;0.75;0.60;;;;;;;10.32;100.00;98323.75;7397748;19;20021;-55
2022/03/13 06:23:47;;;;;;;1.55;0.57;;;;;;;10.33;100.00;98325.25;7392724;19;20018;-55
2022/03/13 06:26:13;;;;;;;2.30;1.00;;;;;;;10.33;100.00;98338.44;7393868;19;20018;-54
2022/03/13 06:28:39;;;;;;;0.57;0.50;;;;;;;10.29;100.00;98327.56;7394309;19;20348;-56
2022/03/13 06:31:05;;;;;;;0.85;0.30;;;;;;;10.33;100.00;98341.97;7396736;19;20030;-55
2022/03/13 06:33:31;;;;;;;0.43;0.43;;;;;;;10.30;100.00;98343.00;7394475;19;20014;-55
2022/03/13 06:35:56;;;;;;;0.30;0.30;;;;;;;10.35;100.00;98333.84;7392029;19;20018;-55
2022/03/13 06:38:22;;;;;;;0.73;0.70;;;;;;;10.32;100.00;98340.47;7391896;19;20018;-55
2022/03/13 06:40:47;;;;;;;0.50;0.30;;;;;;;10.37;100.00;98336.88;7393654;19;20074;-55
2022/03/13 06:43:13;;;;;;;10.85;0.63;;;;;;;10.41;100.00;98331.84;7393776;19;20454;-55
2022/03/13 06:45:38;;;;;;;0.77;0.30;;;;;;;10.46;100.00;98339.38;7391685;19;20022;-55
2022/03/13 06:48:04;;;;;;;0.45;0.45;;;;;;;10.43;100.00;98332.06;7394358;19;20345;-55
2022/03/13 06:50:30;;;;;;;0.28;0.20;;;;;;;10.44;100.00;98336.34;7396110;19;20019;-55
2022/03/13 06:52:55;;;;;;;0.40;0.40;;;;;;;10.38;100.00;98327.28;7394335;19;20368;-55
2022/03/13 06:55:22;;;;;;;0.60;0.60;;;;;;;10.41;100.00;98334.63;7392415;19;20011;-55
2022/03/13 06:57:49;;;;;;;12.38;0.82;;;;;;;10.48;100.00;98334.06;7394178;19;20066;-55
2022/03/13 07:00:16;;;;;;;1.40;0.47;;;;;;;10.47;100.00;98327.00;7393262;19;20066;-55
2022/03/13 07:02:42;;;;;;;0.32;0.32;;;;;;;10.42;100.00;98329.78;7391821;19;20629;-55
2022/03/13 07:05:09;;;;;;;1.55;0.52;;;;;;;10.33;100.00;98330.81;7393325;19;20015;-55
2022/03/13 07:07:34;;;;;;;0.80;0.80;;;;;;;10.28;100.00;98325.28;7393338;19;20025;-54
2022/03/13 07:10:00;;;;;;;0.10;0.10;;;;;;;10.23;100.00;98337.19;7393537;19;20078;-54
2022/03/13 07:12:26;;;;;;;0.32;0.32;;;;;;;10.24;100.00;98325.56;7393859;19;20025;-55
2022/03/13 07:14:55;;;;;;;0.57;0.57;;;;;;;10.25;100.00;98343.00;7391902;19;20594;-55
2022/03/13 07:17:21;;;;;;;0.20;0.20;;;;;;;10.31;100.00;98350.06;7393444;19;20469;-55
2022/03/13 07:19:47;;;;;;;0.45;0.20;;;;;;;10.29;100.00;98343.47;7397774;19;20015;-55
2022/03/13 07:22:14;;;;;;;0.90;0.63;;;;;;;10.34;100.00;98329.56;7392138;19;20002;-55
2022/03/13 07:24:41;;;;;;;0.20;0.20;;;;;;;10.42;100.00;98338.91;7392520;19;20066;-55
2022/03/13 07:27:09;;;;;;;1.67;0.40;;;;;;;10.44;100.00;98341.16;7392876;19;20355;-55
2022/03/13 07:29:35;;;;;;;0.40;0.40;;;;;;;10.44;100.00;98341.91;7391690;19;20052;-55
2022/03/13 07:32:02;;;;;;;1.65;0.30;;;;;;;10.39;100.00;98339.94;7402655;19;20010;-55
2022/03/13 07:34:28;;;;;;;0.22;0.22;;;;;;;10.43;100.00;98343.22;7397975;19;20021;-55
2022/03/13 07:36:54;;;;;;;0.13;0.13;;;;;;;10.49;100.00;98352.28;7400541;19;20519;-55
2022/03/13 07:39:21;;;;;;;0.50;0.22;;;;;;;10.49;100.00;98349.50;7400192;19;20459;-55
2022/03/13 07:41:47;;;;;;;0.45;0.45;;;;;;;10.51;100.00;98363.66;7401032;19;20017;-55
2022/03/13 07:44:14;;;;;;;0.52;0.32;;;;;;;10.51;100.00;98368.47;7398136;19;20018;-56
2022/03/13 07:46:40;;;;;;;0.20;0.20;;;;;;;10.48;100.00;98363.94;7399642;19;20023;-55
2022/03/13 07:49:05;;;;;;;0.38;0.38;;;;;;;10.47;100.00;98363.19;7399358;19;20491;-55
2022/03/13 07:51:34;;;;;;;0.17;0.17;;;;;;;10.49;100.00;98366.22;7403115;19;20035;-56
2022/03/13 07:54:01;;;;;;;0.10;0.10;;;;;;;10.51;100.00;98368.47;7399672;19;20018;-55
2022/03/13 07:56:27;;;;;;;0.20;0.20;;;;;;;10.48;100.00;98375.06;7398889;19;20014;-56
2022/03/13 07:58:53;;;;;;;0.52;0.20;;;;;;;10.56;100.00;98387.94;7397209;19;20029;-56
2022/03/13 08:01:19;;;;;;;0.32;0.30;;;;;;;10.68;100.00;98371.94;7401508;19;20018;-56
2022/03/13 08:03:45;;;;;;;0.50;0.50;;;;;;;10.68;100.00;98377.50;7396988;19;20014;-56
2022/03/13 08:06:11;;;;;;;1.58;0.57;;;;;;;10.69;100.00;98373.47;7399158;19;20028;-57
2022/03/13 08:08:37;;;;;;;0.98;0.32;;;;;;;10.75;100.00;98381.78;7397649;19;20018;-56
2022/03/13 08:11:03;;;;;;;0.20;0.20;;;;;;;10.62;100.00;98385.13;7401025;19;20006;-56
2022/03/13 08:13:29;;;;;;;0.15;0.15;;;;;;;10.94;100.00;98380.69;7399353;19;20023;-56
2022/03/13 08:15:55;;;;;;;0.70;0.47;;;;;;;10.99;100.00;98381.94;7395352;19;20355;-56
2022/03/13 08:18:20;;;;;;;0.68;0.30;;;;;;;11.06;100.00;98389.75;7398767;19;20014;-56
2022/03/13 08:20:46;;;;;;;1.60;0.25;;;;;;;11.11;100.00;98383.41;7399444;19;20010;-56
2022/03/13 08:23:12;;;;;;;7.30;1.38;;;;;;;11.25;100.00;98390.66;7398840;19;20357;-56
2022/03/13 08:25:38;;;;;;;0.22;0.20;;;;;;;11.35;100.00;98397.44;7395845;19;20011;-56
2022/03/13 08:28:03;;;;;;;1.75;0.77;;;;;;;11.42;100.00;98399.69;7398449;19;20014;-56
2022/03/13 08:30:29;;;;;;;0.25;0.25;;;;;;;11.43;100.00;98401.94;7402078;19;20010;-56
2022/03/13 08:32:55;;;;;;;0.20;0.20;;;;;;;11.51;100.00;98395.81;7397804;19;20015;-57
2022/03/13 08:35:21;;;;;;;1.10;0.68;;;;;;;11.56;100.00;98409.75;7399969;19;20477;-57
2022/03/13 08:37:49;;;;;;;9.20;0.73;;;;;;;11.57;100.00;98388.16;7397054;19;20350;-57
2022/03/13 08:40:14;;;;;;;0.52;0.52;;;;;;;11.62;100.00;98396.50;7401474;19;20018;-57
2022/03/13 08:42:40;;;;;;;0.38;0.38;;;;;;;11.62;100.00;98385.34;7397642;19;20514;-57
2022/03/13 08:45:06;;;;;;;0.93;0.70;;;;;;;11.62;100.00;98406.91;7398073;19;20099;-57
2022/03/13 08:47:32;;;;;;;0.20;0.20;;;;;;;11.69;100.00;98384.06;7396911;19;20018;-57
2022/03/13 08:49:57;;;;;;;1.40;0.30;;;;;;;11.70;100.00;98388.34;7396733;19;20011;-57
2022/03/13 08:52:23;;;;;;;0.30;0.30;;;;;;;11.85;100.00;98385.97;7396895;19;20023;-57
2022/03/13 08:54:49;;;;;;;0.90;0.57;;;;;;;11.89;100.00;98378.81;7396021;19;20038;-57
2022/03/13 08:57:15;;;;;;;0.55;0.30;;;;;;;11.92;100.00;98380.56;7394329;19;20019;-57
2022/03/13 08:59:41;;;;;;;0.70;0.60;;;;;;;11.97;100.00;98388.16;7396467;19;20019;-57
2022/03/13 09:02:09;;;;;;;0.57;0.32;;;;;;;12.01;100.00;98383.03;7400712;19;20088;-57
2022/03/13 09:04:35;;;;;;;3.45;0.80;;;;;;;12.03;100.00;98377.69;7398248;19;20010;-58
2022/03/13 09:07:00;;;;;;;0.47;0.32;;;;;;;12.18;100.00;98388.47;7395193;19;20007;-57
2022/03/13 09:09:27;;;;;;;0.38;0.38;;;;;;;12.25;100.00;98392.72;7396478;19;20362;-57
2022/03/13 09:11:53;;;;;;;0.55;0.55;;;;;;;12.21;100.00;98392.25;7399998;19;20027;-57
2022/03/13 09:14:20;;;;;;;1.15;0.35;;;;;;;12.28;100.00;98388.88;7395653;19;20014;-57
2022/03/13 09:16:46;;;;;;;0.43;0.43;;;;;;;12.34;100.00;98397.94;7395053;19;20025;-57
2022/03/13 09:19:12;;;;;;;1.10;0.20;;;;;;;12.48;100.00;98402.38;7400447;19;20058;-57
2022/03/13 09:21:38;;;;;;;0.55;0.22;;;;;;;12.40;100.00;98407.03;7398795;19;20014;-57
2022/03/13 09:24:07;;;;;;;1.65;0.55;;;;;;;12.35;100.00;98428.13;7395588;19;20021;-57
2022/03/13 09:26:34;;;;;;;3.42;1.40;;;;;;;12.45;100.00;98415.31;7395423;19;20019;-57
2022/03/13 09:29:02;;;;;;;5.03;0.68;;;;;;;12.52;100.00;98422.38;7395612;19;20014;-57
2022/03/13 09:31:27;;;;;;;2.20;0.75;;;;;;;12.63;100.00;98411.09;7398631;19;20038;-57
2022/03/13 09:33:53;;;;;;;4.43;0.98;;;;;;;12.69;100.00;98434.88;7392755;19;20014;-57
2022/03/13 09:36:19;;;;;;;4.32;0.80;;;;;;;12.67;100.00;98419.91;7393942;19;20034;-57
2022/03/13 09:38:45;;;;;;;2.28;1.02;;;;;;;12.67;100.00;98428.31;7394818;19;20463;-57
2022/03/13 09:41:12;;;;;;;0.50;0.40;;;;;;;12.67;100.00;98411.53;7395528;19;20018;-57
2022/03/13 09:43:38;;;;;;;0.60;0.60;;;;;;;12.71;100.00;98417.63;7395025;19;20010;-57
2022/03/13 09:46:04;;;;;;;1.17;0.73;;;;;;;12.76;100.00;98400.03;7395103;19;20014;-57
2022/03/13 09:48:30;;;;;;;0.70;0.40;;;;;;;12.75;100.00;98407.66;7394840;19;20010;-57
2022/03/13 09:50:56;;;;;;;6.00;1.05;;;;;;;12.85;100.00;98410.84;7395355;19;20467;-57
2022/03/13 09:53:22;;;;;;;2.53;0.98;;;;;;;12.87;100.00;98416.66;7393153;19;20031;-57
2022/03/13 09:55:48;;;;;;;1.65;0.75;;;;;;;12.87;100.00;98411.81;7392741;19;20014;-57
2022/03/13 09:58:15;;;;;;;0.70;0.68;;;;;;;12.85;100.00;98413.63;7395282;19;20031;-57
2022/03/13 10:00:40;;;;;;;9.02;1.25;;;;;;;12.83;100.00;98421.78;7395897;19;20362;-57
2022/03/13 10:03:08;;;;;;;4.18;1.52;;;;;;;12.80;100.00;98434.00;7395043;19;20010;-57
2022/03/13 10:05:47;;;;;;;7.20;1.85;;;;;;;12.86;100.00;98432.66;7399291;19;20018;-57
2022/03/13 10:08:13;;;;;;;2.55;0.88;;;;;;;13.01;100.00;98431.47;7394253;19;20018;-62
2022/03/13 10:10:44;;;;;;;16.17;1.55;;;;;;;13.11;100.00;98439.00;7393651;19;20031;-63
2022/03/13 10:13:11;;;;;;;3.75;1.38;;;;;;;13.17;100.00;98439.69;7389647;19;20022;-62
2022/03/13 10:15:48;;;;;;;3.40;1.05;;;;;;;13.24;100.00;98433.50;7392258;19;20043;-62
2022/03/13 10:18:18;;;;;;;1.13;0.55;;;;;;;13.49;100.00;98426.53;7392573;19;20021;-62
2022/03/13 10:20:45;;;;;;;7.27;0.83;;;;;;;13.52;100.00;98419.88;7394902;19;20110;-57
2022/03/13 10:23:15;;;;;;;4.47;0.90;;;;;;;13.53;100.00;98418.63;7392121;19;20232;-57
2022/03/13 10:25:43;;;;;;;1.63;0.82;;;;;;;13.61;100.00;98424.34;7394240;19;20010;-57
2022/03/13 10:28:12;;;;;;;7.13;1.45;;;;;;;13.64;100.00;98426.81;7394093;19;20010;-57
2022/03/13 10:30:38;;;;;;;1.88;0.30;;;;;;;13.68;100.00;98432.13;7394033;19;20019;-57
2022/03/13 10:33:05;;;;;;;0.50;0.50;;;;;;;13.78;100.00;98436.03;7394517;19;20103;-57
2022/03/13 10:35:31;;;;;;;6.80;1.10;;;;;;;13.83;100.00;98449.19;7393616;19;20023;-57
2022/03/13 10:37:57;;;;;;;4.88;0.68;;;;;;;13.84;100.00;98433.16;7393836;19;20343;-56
2022/03/13 10:40:24;;;;;;;4.05;0.50;;;;;;;13.92;100.00;98432.03;7393854;19;20018;-56
2022/03/13 10:42:54;;;;;;;0.43;0.28;;;;;;;13.95;100.00;98438.56;7391930;19;20414;-55
2022/03/13 10:45:47;;;;;;;0.52;0.32;;;;;;;13.89;100.00;98441.47;7392558;19;20010;-55
2022/03/13 10:48:28;;;;;;;4.50;0.47;;;;;;;13.96;100.00;98451.28;7392128;19;20029;-55
2022/03/13 10:50:58;;;;;;;4.97;1.00;;;;;;;14.14;100.00;98450.50;7396237;19;20048;-56
2022/03/13 10:53:24;;;;;;;10.02;1.40;;;;;;;14.29;100.00;98454.31;7392289;19;20014;-55
2022/03/13 10:56:03;;;;;;;0.50;0.50;;;;;;;14.30;100.00;98469.09;7391655;19;20011;-55
2022/03/13 10:58:31;;;;;;;2.63;0.50;;;;;;;14.19;100.00;98456.00;7394272;19;20010;-55
2022/03/13 11:01:05;;;;;;;1.92;0.60;;;;;;;14.25;100.00;98464.31;7395493;19;20028;-55
2022/03/13 11:03:32;;;;;;;0.88;0.10;;;;;;;14.29;100.00;98470.38;7393800;19;20026;-56
2022/03/13 11:05:59;;;;;;;5.82;0.52;;;;;;;14.33;100.00;98459.63;7395709;19;20018;-55
2022/03/13 11:08:26;;;;;;;4.70;1.33;;;;;;;14.23;100.00;98464.84;7400341;19;20030;-55
2022/03/13 11:10:53;;;;;;;0.63;0.63;;;;;;;14.27;100.00;98464.53;7402553;19;20466;-55
2022/03/13 11:13:21;;;;;;;2.85;0.50;;;;;;;14.43;100.00;98460.72;7399173;19;20033;-55
2022/03/13 11:15:48;;;;;;;2.70;0.52;;;;;;;14.60;100.00;98463.97;7394938;19;20347;-55
2022/03/13 11:18:17;;;;;;;4.78;0.60;;;;;;;14.67;100.00;98468.94;7397344;19;20343;-54
2022/03/13 11:20:43;;;;;;;0.93;0.30;;;;;;;14.63;100.00;98468.50;7402212;19;20019;-59
2022/03/13 11:23:09;;;;;;;3.80;0.93;;;;;;;14.64;100.00;98463.66;7398285;19;20038;-59
2022/03/13 11:25:38;;;;;;;6.75;0.68;;;;;;;14.60;100.00;98475.19;7399978;19;20014;-60